createdAt,value
2017-12-31T17:12:55.361Z,7.57
2017-12-31T17:15:23.582Z,7.83
2017-12-31T17:17:51.046Z,7.17
2017-12-31T17:20:18.932Z,7.73
2017-12-31T17:22:46.389Z,7.67
2017-12-31T17:25:13.846Z,7.70
2017-12-31T17:27:41.358Z,8.63
2017-12-31T17:30:08.822Z,7.63
2017-12-31T17:32:36.280Z,7.57
2017-12-31T17:35:03.754Z,7.80
2017-12-31T17:37:31.201Z,7.53
2017-12-31T17:39:58.662Z,7.53
2017-12-31T17:42:26.155Z,7.37
2017-12-31T17:44:54.389Z,7.77
2017-12-31T17:47:21.855Z,8.07
2017-12-31T17:49:49.392Z,7.97
2017-12-31T17:52:16.951Z,7.30
2017-12-31T17:54:44.404Z,8.37
2017-12-31T17:57:11.897Z,7.20
2017-12-31T17:59:39.354Z,6.90
2017-12-31T18:02:06.802Z,7.23
2017-12-31T18:04:34.882Z,8.30
2017-12-31T18:07:02.334Z,7.80
2017-12-31T18:09:29.785Z,7.40
2017-12-31T18:11:57.458Z,8.80
2017-12-31T18:14:24.923Z,7.87
2017-12-31T18:16:52.389Z,8.10
2017-12-31T18:19:19.857Z,8.63
2017-12-31T18:21:48.090Z,8.70
2017-12-31T18:24:15.594Z,8.90
2017-12-31T18:26:43.845Z,8.80
2017-12-31T18:29:11.301Z,9.13
2017-12-31T18:31:38.767Z,8.33
2017-12-31T18:34:06.654Z,9.03
2017-12-31T18:36:34.880Z,9.60
2017-12-31T18:39:02.338Z,9.30
2017-12-31T18:41:29.813Z,10.10
2017-12-31T18:43:58.781Z,10.43
2017-12-31T18:46:26.300Z,10.37
2017-12-31T18:48:53.726Z,9.40
2017-12-31T18:51:21.201Z,9.37
2017-12-31T18:53:49.433Z,9.80
2017-12-31T18:56:17.012Z,9.90
2017-12-31T18:58:44.527Z,10.20
2017-12-31T19:01:11.984Z,9.77
2017-12-31T19:03:39.786Z,9.27
2017-12-31T19:06:07.254Z,9.50
2017-12-31T19:08:34.726Z,10.80
2017-12-31T19:11:03.006Z,11.10
2017-12-31T19:13:31.233Z,10.17
2017-12-31T19:15:58.693Z,10.90
2017-12-31T19:18:26.165Z,10.63
2017-12-31T19:20:54.446Z,10.97
2017-12-31T19:23:21.918Z,10.23
2017-12-31T19:25:50.174Z,10.57
2017-12-31T19:28:17.646Z,10.67
2017-12-31T19:30:46.357Z,10.90
2017-12-31T19:33:13.894Z,11.53
2017-12-31T19:35:42.121Z,11.13
2017-12-31T19:38:09.577Z,11.60
2017-12-31T19:40:37.686Z,10.50
2017-12-31T19:43:05.145Z,11.30
2017-12-31T19:45:32.602Z,10.73
2017-12-31T19:48:00.181Z,10.70
2017-12-31T19:50:28.413Z,10.53
2017-12-31T19:52:55.948Z,10.70
2017-12-31T19:55:23.429Z,10.53
2017-12-31T19:57:50.886Z,10.40
2017-12-31T20:00:18.349Z,11.10
2017-12-31T20:02:45.821Z,10.33
2017-12-31T20:05:13.290Z,10.47
2017-12-31T20:07:41.518Z,11.67
2017-12-31T20:10:08.991Z,11.00
2017-12-31T20:12:36.449Z,9.53
2017-12-31T20:15:03.910Z,9.63
2017-12-31T20:17:31.383Z,11.10
2017-12-31T20:19:59.609Z,10.20
2017-12-31T20:22:27.082Z,10.30
2017-12-31T20:24:54.558Z,10.27
2017-12-31T20:27:22.025Z,9.70
2017-12-31T20:29:50.355Z,10.30
2017-12-31T20:32:17.822Z,10.27
2017-12-31T20:34:45.278Z,9.80
2017-12-31T20:37:12.737Z,10.70
2017-12-31T20:39:40.213Z,10.30
2017-12-31T20:42:07.670Z,10.10
2017-12-31T20:44:35.129Z,10.70
2017-12-31T20:47:02.611Z,10.75
2017-12-31T20:49:30.062Z,10.07
2017-12-31T20:51:57.522Z,9.90
2017-12-31T20:54:24.990Z,10.07
2017-12-31T20:56:53.213Z,10.20
2017-12-31T20:59:20.673Z,10.30
2017-12-31T21:01:48.671Z,10.27
2017-12-31T21:04:16.134Z,8.80
2017-12-31T21:06:43.586Z,8.53
2017-12-31T21:09:12.882Z,9.37
2017-12-31T21:11:41.105Z,9.53
2017-12-31T21:14:08.570Z,9.30
2017-12-31T21:16:36.036Z,8.83
2017-12-31T23:40:10.109Z,26.40
2017-12-31T23:43:49.603Z,29.03
